sensor_id;sensor_type;location;lat;lon;timestamp;temperature;humidity
18694;DHT22;9477;51.414;10.362;2023-03-23T00:00:19;16.50;67.70
18694;DHT22;9477;51.414;10.362;2023-03-23T00:02:23;16.60;67.80
18694;DHT22;9477;51.414;10.362;2023-03-23T00:04:26;16.70;67.80
18694;DHT22;9477;51.414;10.362;2023-03-23T00:06:30;16.70;67.60
18694;DHT22;9477;51.414;10.362;2023-03-23T00:08:34;16.70;67.50
18694;DHT22;9477;51.414;10.362;2023-03-23T00:10:38;16.70;67.50
18694;DHT22;9477;51.414;10.362;2023-03-23T00:12:41;16.70;67.50
18694;DHT22;9477;51.414;10.362;2023-03-23T00:14:45;16.70;67.50
18694;DHT22;9477;51.414;10.362;2023-03-23T00:16:47;16.80;67.60
18694;DHT22;9477;51.414;10.362;2023-03-23T00:18:50;16.80;67.50
18694;DHT22;9477;51.414;10.362;2023-03-23T00:20:54;16.70;67.40
18694;DHT22;9477;51.414;10.362;2023-03-23T00:22:56;16.70;67.50
18694;DHT22;9477;51.414;10.362;2023-03-23T00:25:00;16.70;67.60
18694;DHT22;9477;51.414;10.362;2023-03-23T00:27:02;16.80;67.60
18694;DHT22;9477;51.414;10.362;2023-03-23T00:29:06;16.70;67.50
18694;DHT22;9477;51.414;10.362;2023-03-23T00:31:09;16.70;67.50
18694;DHT22;9477;51.414;10.362;2023-03-23T00:33:11;16.70;67.50
18694;DHT22;9477;51.414;10.362;2023-03-23T00:35:14;16.70;67.60
18694;DHT22;9477;51.414;10.362;2023-03-23T00:37:15;16.70;67.80
18694;DHT22;9477;51.414;10.362;2023-03-23T00:39:18;16.70;67.80
18694;DHT22;9477;51.414;10.362;2023-03-23T00:41:19;16.70;67.90
18694;DHT22;9477;51.414;10.362;2023-03-23T00:43:21;16.70;68.00
18694;DHT22;9477;51.414;10.362;2023-03-23T00:45:26;16.70;67.90
18694;DHT22;9477;51.414;10.362;2023-03-23T00:47:28;16.70;68.10
18694;DHT22;9477;51.414;10.362;2023-03-23T00:49:30;16.70;68.10
18694;DHT22;9477;51.414;10.362;2023-03-23T00:51:35;16.70;68.20
18694;DHT22;9477;51.414;10.362;2023-03-23T00:53:37;16.60;68.20
18694;DHT22;9477;51.414;10.362;2023-03-23T00:55:40;16.60;68.20
18694;DHT22;9477;51.414;10.362;2023-03-23T00:57:42;16.70;68.30
18694;DHT22;9477;51.414;10.362;2023-03-23T00:59:44;16.70;68.30
18694;DHT22;9477;51.414;10.362;2023-03-23T01:01:47;16.70;68.30
18694;DHT22;9477;51.414;10.362;2023-03-23T01:03:49;16.70;68.20
18694;DHT22;9477;51.414;10.362;2023-03-23T01:05:51;16.70;68.20
18694;DHT22;9477;51.414;10.362;2023-03-23T01:07:53;16.70;68.20
18694;DHT22;9477;51.414;10.362;2023-03-23T01:09:55;16.70;68.20
18694;DHT22;9477;51.414;10.362;2023-03-23T01:11:58;16.70;68.10
18694;DHT22;9477;51.414;10.362;2023-03-23T01:14:00;16.70;68.10
18694;DHT22;9477;51.414;10.362;2023-03-23T01:16:02;16.70;68.80
18694;DHT22;9477;51.414;10.362;2023-03-23T01:18:05;16.70;68.10
18694;DHT22;9477;51.414;10.362;2023-03-23T01:20:08;16.70;67.90
18694;DHT22;9477;51.414;10.362;2023-03-23T01:22:11;16.70;67.90
18694;DHT22;9477;51.414;10.362;2023-03-23T01:24:12;16.70;68.00
18694;DHT22;9477;51.414;10.362;2023-03-23T01:26:16;16.70;67.80
18694;DHT22;9477;51.414;10.362;2023-03-23T01:28:19;16.70;67.80
18694;DHT22;9477;51.414;10.362;2023-03-23T01:30:21;16.70;67.90
18694;DHT22;9477;51.414;10.362;2023-03-23T01:32:23;16.70;68.10
18694;DHT22;9477;51.414;10.362;2023-03-23T01:34:26;16.70;68.40
18694;DHT22;9477;51.414;10.362;2023-03-23T01:36:29;16.70;68.50
18694;DHT22;9477;51.414;10.362;2023-03-23T01:38:33;16.70;68.80
18694;DHT22;9477;51.414;10.362;2023-03-23T01:40:35;16.70;68.80
18694;DHT22;9477;51.414;10.362;2023-03-23T01:42:38;16.70;68.90
18694;DHT22;9477;51.414;10.362;2023-03-23T01:47:27;16.30;69.60
18694;DHT22;9477;51.414;10.362;2023-03-23T01:49:32;16.40;70.00
18694;DHT22;9477;51.414;10.362;2023-03-23T01:51:38;16.40;70.30
18694;DHT22;9477;51.414;10.362;2023-03-23T01:53:45;16.20;70.80
18694;DHT22;9477;51.414;10.362;2023-03-23T01:55:49;16.20;71.40
18694;DHT22;9477;51.414;10.362;2023-03-23T01:57:52;16.00;71.40
18694;DHT22;9477;51.414;10.362;2023-03-23T01:59:58;16.00;72.20
18694;DHT22;9477;51.414;10.362;2023-03-23T02:02:08;15.90;72.50
18694;DHT22;9477;51.414;10.362;2023-03-23T02:04:12;16.00;72.70
18694;DHT22;9477;51.414;10.362;2023-03-23T02:06:16;16.00;72.70
18694;DHT22;9477;51.414;10.362;2023-03-23T02:08:18;16.00;72.80
18694;DHT22;9477;51.414;10.362;2023-03-23T02:10:20;15.90;73.60
18694;DHT22;9477;51.414;10.362;2023-03-23T02:12:22;16.00;74.50
18694;DHT22;9477;51.414;10.362;2023-03-23T02:14:25;16.10;73.50
18694;DHT22;9477;51.414;10.362;2023-03-23T02:16:33;16.10;73.40
18694;DHT22;9477;51.414;10.362;2023-03-23T02:18:44;16.10;73.20
18694;DHT22;9477;51.414;10.362;2023-03-23T02:21:19;16.10;73.30
18694;DHT22;9477;51.414;10.362;2023-03-23T02:23:37;16.10;73.40
18694;DHT22;9477;51.414;10.362;2023-03-23T02:25:55;16.10;73.40
18694;DHT22;9477;51.414;10.362;2023-03-23T02:28:16;15.80;73.50
18694;DHT22;9477;51.414;10.362;2023-03-23T02:30:37;15.90;73.50
18694;DHT22;9477;51.414;10.362;2023-03-23T02:33:08;15.90;73.60
18694;DHT22;9477;51.414;10.362;2023-03-23T02:35:12;15.80;73.90
18694;DHT22;9477;51.414;10.362;2023-03-23T02:37:22;15.90;73.90
18694;DHT22;9477;51.414;10.362;2023-03-23T02:39:29;15.90;73.90
18694;DHT22;9477;51.414;10.362;2023-03-23T02:41:36;15.70;74.30
18694;DHT22;9477;51.414;10.362;2023-03-23T02:43:43;15.70;74.30
18694;DHT22;9477;51.414;10.362;2023-03-23T02:45:46;15.60;74.40
18694;DHT22;9477;51.414;10.362;2023-03-23T02:47:50;15.70;74.30
18694;DHT22;9477;51.414;10.362;2023-03-23T02:49:55;15.70;74.40
18694;DHT22;9477;51.414;10.362;2023-03-23T02:51:59;15.80;74.50
18694;DHT22;9477;51.414;10.362;2023-03-23T02:54:04;15.90;74.50
18694;DHT22;9477;51.414;10.362;2023-03-23T02:56:08;15.90;74.20
18694;DHT22;9477;51.414;10.362;2023-03-23T02:58:11;15.90;74.20
18694;DHT22;9477;51.414;10.362;2023-03-23T03:00:15;16.00;74.10
18694;DHT22;9477;51.414;10.362;2023-03-23T03:02:21;16.00;74.10
18694;DHT22;9477;51.414;10.362;2023-03-23T03:04:26;15.90;74.00
18694;DHT22;9477;51.414;10.362;2023-03-23T03:06:34;15.90;74.10
18694;DHT22;9477;51.414;10.362;2023-03-23T03:08:43;16.00;74.20
18694;DHT22;9477;51.414;10.362;2023-03-23T03:10:52;15.90;74.10
18694;DHT22;9477;51.414;10.362;2023-03-23T03:13:01;15.80;74.30
18694;DHT22;9477;51.414;10.362;2023-03-23T03:15:13;15.70;74.40
18694;DHT22;9477;51.414;10.362;2023-03-23T03:17:22;15.70;74.50
18694;DHT22;9477;51.414;10.362;2023-03-23T03:19:27;15.70;74.50
18694;DHT22;9477;51.414;10.362;2023-03-23T03:21:34;15.80;74.40
18694;DHT22;9477;51.414;10.362;2023-03-23T03:23:40;15.90;74.40
18694;DHT22;9477;51.414;10.362;2023-03-23T03:25:43;15.90;74.30
18694;DHT22;9477;51.414;10.362;2023-03-23T03:27:48;15.80;74.30
18694;DHT22;9477;51.414;10.362;2023-03-23T03:29:56;15.80;74.30
18694;DHT22;9477;51.414;10.362;2023-03-23T03:32:01;15.70;75.10
18694;DHT22;9477;51.414;10.362;2023-03-23T03:34:06;15.80;75.40
18694;DHT22;9477;51.414;10.362;2023-03-23T03:36:14;15.70;75.80
18694;DHT22;9477;51.414;10.362;2023-03-23T03:38:18;15.40;76.20
18694;DHT22;9477;51.414;10.362;2023-03-23T03:40:22;15.60;76.50
18694;DHT22;9477;51.414;10.362;2023-03-23T03:42:24;15.50;77.20
18694;DHT22;9477;51.414;10.362;2023-03-23T03:44:26;15.60;77.10
18694;DHT22;9477;51.414;10.362;2023-03-23T03:46:28;15.60;77.30
18694;DHT22;9477;51.414;10.362;2023-03-23T03:48:31;15.60;77.50
18694;DHT22;9477;51.414;10.362;2023-03-23T03:50:33;15.50;77.80
18694;DHT22;9477;51.414;10.362;2023-03-23T03:52:35;15.50;77.80
18694;DHT22;9477;51.414;10.362;2023-03-23T03:54:39;15.60;77.80
18694;DHT22;9477;51.414;10.362;2023-03-23T03:56:42;15.30;78.50
18694;DHT22;9477;51.414;10.362;2023-03-23T03:58:46;15.00;79.10
18694;DHT22;9477;51.414;10.362;2023-03-23T04:00:49;15.10;79.20
18694;DHT22;9477;51.414;10.362;2023-03-23T04:02:50;15.20;79.30
18694;DHT22;9477;51.414;10.362;2023-03-23T04:04:55;15.30;79.30
18694;DHT22;9477;51.414;10.362;2023-03-23T04:06:57;15.30;79.20
18694;DHT22;9477;51.414;10.362;2023-03-23T04:08:58;15.40;79.10
18694;DHT22;9477;51.414;10.362;2023-03-23T04:11:03;15.30;79.40
18694;DHT22;9477;51.414;10.362;2023-03-23T04:13:06;15.40;79.40
18694;DHT22;9477;51.414;10.362;2023-03-23T04:15:08;15.50;79.40
18694;DHT22;9477;51.414;10.362;2023-03-23T04:17:10;15.40;79.30
18694;DHT22;9477;51.414;10.362;2023-03-23T04:19:11;15.40;79.60
18694;DHT22;9477;51.414;10.362;2023-03-23T04:21:14;15.40;79.90
18694;DHT22;9477;51.414;10.362;2023-03-23T04:23:18;15.30;79.90
18694;DHT22;9477;51.414;10.362;2023-03-23T04:25:21;15.20;80.10
18694;DHT22;9477;51.414;10.362;2023-03-23T04:27:24;15.20;80.50
18694;DHT22;9477;51.414;10.362;2023-03-23T04:29:28;15.20;80.40
18694;DHT22;9477;51.414;10.362;2023-03-23T04:31:30;15.20;80.30
18694;DHT22;9477;51.414;10.362;2023-03-23T04:33:32;15.20;80.60
18694;DHT22;9477;51.414;10.362;2023-03-23T04:35:34;15.10;80.90
18694;DHT22;9477;51.414;10.362;2023-03-23T04:37:35;15.10;80.90
18694;DHT22;9477;51.414;10.362;2023-03-23T04:39:37;15.10;81.00
18694;DHT22;9477;51.414;10.362;2023-03-23T04:41:40;15.20;80.70
18694;DHT22;9477;51.414;10.362;2023-03-23T04:43:43;15.20;80.60
18694;DHT22;9477;51.414;10.362;2023-03-23T04:45:45;15.10;81.10
18694;DHT22;9477;51.414;10.362;2023-03-23T04:47:48;15.10;81.40
18694;DHT22;9477;51.414;10.362;2023-03-23T04:49:53;14.90;81.80
18694;DHT22;9477;51.414;10.362;2023-03-23T04:51:54;14.80;82.30
18694;DHT22;9477;51.414;10.362;2023-03-23T04:53:56;14.80;82.30
18694;DHT22;9477;51.414;10.362;2023-03-23T04:55:58;14.90;82.30
18694;DHT22;9477;51.414;10.362;2023-03-23T04:58:01;14.80;82.30
18694;DHT22;9477;51.414;10.362;2023-03-23T05:00:06;14.80;82.40
18694;DHT22;9477;51.414;10.362;2023-03-23T05:02:09;14.60;82.80
18694;DHT22;9477;51.414;10.362;2023-03-23T05:04:11;14.50;83.30
18694;DHT22;9477;51.414;10.362;2023-03-23T05:06:16;14.50;83.30
18694;DHT22;9477;51.414;10.362;2023-03-23T05:08:18;14.60;83.50
18694;DHT22;9477;51.414;10.362;2023-03-23T05:10:22;14.60;83.50
18694;DHT22;9477;51.414;10.362;2023-03-23T05:12:23;14.60;83.30
18694;DHT22;9477;51.414;10.362;2023-03-23T05:14:25;14.70;83.20
18694;DHT22;9477;51.414;10.362;2023-03-23T05:16:28;14.70;83.40
18694;DHT22;9477;51.414;10.362;2023-03-23T05:18:30;14.60;83.80
18694;DHT22;9477;51.414;10.362;2023-03-23T05:20:33;14.60;83.90
18694;DHT22;9477;51.414;10.362;2023-03-23T05:22:35;14.60;83.90
18694;DHT22;9477;51.414;10.362;2023-03-23T05:24:36;14.70;83.90
18694;DHT22;9477;51.414;10.362;2023-03-23T05:26:38;14.80;84.00
18694;DHT22;9477;51.414;10.362;2023-03-23T05:28:40;14.90;83.80
18694;DHT22;9477;51.414;10.362;2023-03-23T05:30:42;14.90;83.70
18694;DHT22;9477;51.414;10.362;2023-03-23T05:32:45;14.90;83.60
18694;DHT22;9477;51.414;10.362;2023-03-23T05:34:50;14.90;83.60
18694;DHT22;9477;51.414;10.362;2023-03-23T05:36:52;14.80;84.00
18694;DHT22;9477;51.414;10.362;2023-03-23T05:38:55;14.80;84.00
18694;DHT22;9477;51.414;10.362;2023-03-23T05:41:00;14.80;83.90
18694;DHT22;9477;51.414;10.362;2023-03-23T05:43:02;14.80;83.90
18694;DHT22;9477;51.414;10.362;2023-03-23T05:45:05;14.80;84.00
18694;DHT22;9477;51.414;10.362;2023-03-23T05:47:07;14.80;84.20
18694;DHT22;9477;51.414;10.362;2023-03-23T05:49:10;14.80;84.30
18694;DHT22;9477;51.414;10.362;2023-03-23T05:51:12;14.70;84.20
18694;DHT22;9477;51.414;10.362;2023-03-23T05:53:14;14.80;84.20
18694;DHT22;9477;51.414;10.362;2023-03-23T05:55:17;14.70;84.40
18694;DHT22;9477;51.414;10.362;2023-03-23T05:57:19;14.70;84.50
18694;DHT22;9477;51.414;10.362;2023-03-23T05:59:22;14.60;84.80
18694;DHT22;9477;51.414;10.362;2023-03-23T06:01:23;14.60;84.50
18694;DHT22;9477;51.414;10.362;2023-03-23T06:03:25;14.60;84.90
18694;DHT22;9477;51.414;10.362;2023-03-23T06:05:28;14.60;85.00
18694;DHT22;9477;51.414;10.362;2023-03-23T06:07:30;14.50;85.00
18694;DHT22;9477;51.414;10.362;2023-03-23T06:09:32;14.60;85.00
18694;DHT22;9477;51.414;10.362;2023-03-23T06:11:34;14.60;85.00
18694;DHT22;9477;51.414;10.362;2023-03-23T06:13:35;14.60;85.10
18694;DHT22;9477;51.414;10.362;2023-03-23T06:15:37;14.60;84.90
18694;DHT22;9477;51.414;10.362;2023-03-23T06:17:39;14.60;85.10
18694;DHT22;9477;51.414;10.362;2023-03-23T06:19:41;14.70;85.20
18694;DHT22;9477;51.414;10.362;2023-03-23T06:21:44;14.70;85.10
18694;DHT22;9477;51.414;10.362;2023-03-23T06:23:45;14.60;85.20
18694;DHT22;9477;51.414;10.362;2023-03-23T06:25:48;14.60;85.30
18694;DHT22;9477;51.414;10.362;2023-03-23T06:27:50;14.60;85.20
18694;DHT22;9477;51.414;10.362;2023-03-23T06:29:54;14.70;85.30
18694;DHT22;9477;51.414;10.362;2023-03-23T06:31:59;14.70;85.40
18694;DHT22;9477;51.414;10.362;2023-03-23T06:34:02;14.60;85.50
18694;DHT22;9477;51.414;10.362;2023-03-23T06:36:05;14.70;85.40
18694;DHT22;9477;51.414;10.362;2023-03-23T06:38:08;14.70;85.30
18694;DHT22;9477;51.414;10.362;2023-03-23T06:40:10;14.70;85.30
18694;DHT22;9477;51.414;10.362;2023-03-23T06:42:12;14.80;85.30
18694;DHT22;9477;51.414;10.362;2023-03-23T06:44:14;14.70;85.30
18694;DHT22;9477;51.414;10.362;2023-03-23T06:46:16;14.70;85.70
18694;DHT22;9477;51.414;10.362;2023-03-23T06:48:17;14.60;85.70
18694;DHT22;9477;51.414;10.362;2023-03-23T06:50:20;14.60;85.80
18694;DHT22;9477;51.414;10.362;2023-03-23T06:52:21;14.70;85.80
18694;DHT22;9477;51.414;10.362;2023-03-23T06:54:25;14.60;85.90
18694;DHT22;9477;51.414;10.362;2023-03-23T06:56:27;14.60;86.20
18694;DHT22;9477;51.414;10.362;2023-03-23T06:58:28;14.70;86.10
18694;DHT22;9477;51.414;10.362;2023-03-23T07:00:30;14.80;86.20
18694;DHT22;9477;51.414;10.362;2023-03-23T07:02:32;14.80;86.10
18694;DHT22;9477;51.414;10.362;2023-03-23T07:04:33;14.80;86.10
18694;DHT22;9477;51.414;10.362;2023-03-23T07:06:35;14.90;86.00
18694;DHT22;9477;51.414;10.362;2023-03-23T07:08:38;14.80;86.00
18694;DHT22;9477;51.414;10.362;2023-03-23T07:10:41;14.90;86.30
18694;DHT22;9477;51.414;10.362;2023-03-23T07:12:44;15.00;86.40
18694;DHT22;9477;51.414;10.362;2023-03-23T07:14:46;15.00;86.30
18694;DHT22;9477;51.414;10.362;2023-03-23T07:16:48;15.10;86.30
18694;DHT22;9477;51.414;10.362;2023-03-23T07:18:49;15.30;86.40
18694;DHT22;9477;51.414;10.362;2023-03-23T07:20:52;15.40;86.30
18694;DHT22;9477;51.414;10.362;2023-03-23T07:22:54;15.50;85.90
18694;DHT22;9477;51.414;10.362;2023-03-23T07:24:56;15.60;85.70
18694;DHT22;9477;51.414;10.362;2023-03-23T07:27:00;15.70;85.80
18694;DHT22;9477;51.414;10.362;2023-03-23T07:29:01;15.70;85.90
18694;DHT22;9477;51.414;10.362;2023-03-23T07:31:03;15.80;85.80
18694;DHT22;9477;51.414;10.362;2023-03-23T07:33:06;16.00;85.70
18694;DHT22;9477;51.414;10.362;2023-03-23T07:35:08;16.10;85.50
18694;DHT22;9477;51.414;10.362;2023-03-23T07:37:11;16.10;85.00
18694;DHT22;9477;51.414;10.362;2023-03-23T07:39:13;16.10;85.00
18694;DHT22;9477;51.414;10.362;2023-03-23T07:41:14;16.10;85.30
18694;DHT22;9477;51.414;10.362;2023-03-23T07:43:17;16.00;85.10
18694;DHT22;9477;51.414;10.362;2023-03-23T07:45:19;16.20;85.30
18694;DHT22;9477;51.414;10.362;2023-03-23T07:47:21;16.20;85.30
18694;DHT22;9477;51.414;10.362;2023-03-23T07:49:23;16.30;85.20
18694;DHT22;9477;51.414;10.362;2023-03-23T07:51:25;16.30;85.50
18694;DHT22;9477;51.414;10.362;2023-03-23T07:53:28;16.30;85.00
18694;DHT22;9477;51.414;10.362;2023-03-23T07:55:30;16.40;85.30
18694;DHT22;9477;51.414;10.362;2023-03-23T07:57:32;16.50;85.00
18694;DHT22;9477;51.414;10.362;2023-03-23T07:59:35;16.20;84.90
18694;DHT22;9477;51.414;10.362;2023-03-23T08:01:37;16.20;84.80
18694;DHT22;9477;51.414;10.362;2023-03-23T08:03:39;16.10;85.00
18694;DHT22;9477;51.414;10.362;2023-03-23T08:05:41;16.10;84.90
18694;DHT22;9477;51.414;10.362;2023-03-23T08:07:44;16.00;84.80
18694;DHT22;9477;51.414;10.362;2023-03-23T08:09:47;16.00;84.90
18694;DHT22;9477;51.414;10.362;2023-03-23T08:11:49;16.00;85.20
18694;DHT22;9477;51.414;10.362;2023-03-23T08:13:51;16.00;85.30
18694;DHT22;9477;51.414;10.362;2023-03-23T08:15:54;16.10;85.50
18694;DHT22;9477;51.414;10.362;2023-03-23T08:17:55;16.20;85.40
18694;DHT22;9477;51.414;10.362;2023-03-23T08:19:57;16.30;85.20
18694;DHT22;9477;51.414;10.362;2023-03-23T08:21:59;16.40;84.90
18694;DHT22;9477;51.414;10.362;2023-03-23T08:24:01;16.30;84.40
18694;DHT22;9477;51.414;10.362;2023-03-23T08:26:03;16.50;84.60
18694;DHT22;9477;51.414;10.362;2023-03-23T08:28:06;16.50;84.50
18694;DHT22;9477;51.414;10.362;2023-03-23T08:30:11;16.70;84.70
18694;DHT22;9477;51.414;10.362;2023-03-23T08:32:14;17.00;84.70
18694;DHT22;9477;51.414;10.362;2023-03-23T08:34:16;17.20;84.30
18694;DHT22;9477;51.414;10.362;2023-03-23T08:36:18;17.50;83.80
18694;DHT22;9477;51.414;10.362;2023-03-23T08:38:20;17.60;83.40
18694;DHT22;9477;51.414;10.362;2023-03-23T08:40:23;17.50;82.80
18694;DHT22;9477;51.414;10.362;2023-03-23T08:42:25;17.40;82.40
18694;DHT22;9477;51.414;10.362;2023-03-23T08:44:27;17.40;82.80
18694;DHT22;9477;51.414;10.362;2023-03-23T08:46:29;17.40;83.00
18694;DHT22;9477;51.414;10.362;2023-03-23T08:48:32;17.60;83.10
18694;DHT22;9477;51.414;10.362;2023-03-23T08:50:35;17.60;83.00
18694;DHT22;9477;51.414;10.362;2023-03-23T08:52:37;17.80;83.00
18694;DHT22;9477;51.414;10.362;2023-03-23T08:54:39;17.90;82.50
18694;DHT22;9477;51.414;10.362;2023-03-23T08:56:41;18.00;82.30
18694;DHT22;9477;51.414;10.362;2023-03-23T08:58:43;17.90;81.80
18694;DHT22;9477;51.414;10.362;2023-03-23T09:00:45;17.90;81.50
18694;DHT22;9477;51.414;10.362;2023-03-23T09:02:49;17.90;82.20
18694;DHT22;9477;51.414;10.362;2023-03-23T09:04:53;17.80;81.70
18694;DHT22;9477;51.414;10.362;2023-03-23T09:06:55;18.00;82.40
18694;DHT22;9477;51.414;10.362;2023-03-23T09:08:57;18.10;81.80
18694;DHT22;9477;51.414;10.362;2023-03-23T09:11:04;18.10;81.60
18694;DHT22;9477;51.414;10.362;2023-03-23T09:13:07;18.10;81.70
18694;DHT22;9477;51.414;10.362;2023-03-23T09:15:10;17.90;81.20
18694;DHT22;9477;51.414;10.362;2023-03-23T09:17:12;18.00;81.50
18694;DHT22;9477;51.414;10.362;2023-03-23T09:19:14;18.10;81.40
18694;DHT22;9477;51.414;10.362;2023-03-23T09:21:17;18.20;81.20
18694;DHT22;9477;51.414;10.362;2023-03-23T09:23:19;18.30;81.20
18694;DHT22;9477;51.414;10.362;2023-03-23T09:25:23;18.30;80.70
18694;DHT22;9477;51.414;10.362;2023-03-23T09:27:25;18.40;80.80
18694;DHT22;9477;51.414;10.362;2023-03-23T09:29:27;18.40;80.50
18694;DHT22;9477;51.414;10.362;2023-03-23T09:31:29;18.40;80.50
18694;DHT22;9477;51.414;10.362;2023-03-23T09:33:33;18.50;80.70
18694;DHT22;9477;51.414;10.362;2023-03-23T09:35:36;18.50;80.00
18694;DHT22;9477;51.414;10.362;2023-03-23T09:37:40;18.20;77.90
18694;DHT22;9477;51.414;10.362;2023-03-23T09:39:44;18.00;78.30
18694;DHT22;9477;51.414;10.362;2023-03-23T09:41:59;18.20;79.10
18694;DHT22;9477;51.414;10.362;2023-03-23T09:44:08;18.20;79.20
18694;DHT22;9477;51.414;10.362;2023-03-23T09:46:23;18.20;79.20
18694;DHT22;9477;51.414;10.362;2023-03-23T09:48:36;18.20;79.00
18694;DHT22;9477;51.414;10.362;2023-03-23T09:50:42;18.20;78.90
18694;DHT22;9477;51.414;10.362;2023-03-23T09:52:50;18.20;79.00
18694;DHT22;9477;51.414;10.362;2023-03-23T09:54:54;18.20;78.80
18694;DHT22;9477;51.414;10.362;2023-03-23T09:56:59;18.30;79.10
18694;DHT22;9477;51.414;10.362;2023-03-23T09:59:09;18.20;78.60
18694;DHT22;9477;51.414;10.362;2023-03-23T10:01:17;18.30;79.10
18694;DHT22;9477;51.414;10.362;2023-03-23T10:03:26;18.20;78.00
18694;DHT22;9477;51.414;10.362;2023-03-23T10:05:33;17.90;77.90
18694;DHT22;9477;51.414;10.362;2023-03-23T10:07:35;17.70;77.90
18694;DHT22;9477;51.414;10.362;2023-03-23T10:09:40;17.80;78.00
18694;DHT22;9477;51.414;10.362;2023-03-23T10:11:50;17.80;78.10
18694;DHT22;9477;51.414;10.362;2023-03-23T10:14:13;18.00;79.10
18694;DHT22;9477;51.414;10.362;2023-03-23T10:16:20;18.30;78.80
18694;DHT22;9477;51.414;10.362;2023-03-23T10:18:25;18.40;77.90
18694;DHT22;9477;51.414;10.362;2023-03-23T10:20:36;18.40;76.80
18694;DHT22;9477;51.414;10.362;2023-03-23T10:22:42;18.50;77.20
18694;DHT22;9477;51.414;10.362;2023-03-23T10:24:50;18.70;77.40
18694;DHT22;9477;51.414;10.362;2023-03-23T10:26:59;18.30;76.10
18694;DHT22;9477;51.414;10.362;2023-03-23T10:29:12;18.50;75.80
18694;DHT22;9477;51.414;10.362;2023-03-23T10:31:18;18.90;76.80
18694;DHT22;9477;51.414;10.362;2023-03-23T10:33:28;19.20;76.50
18694;DHT22;9477;51.414;10.362;2023-03-23T10:35:35;19.30;75.60
18694;DHT22;9477;51.414;10.362;2023-03-23T10:37:42;19.30;74.80
18694;DHT22;9477;51.414;10.362;2023-03-23T10:39:50;19.20;73.50
18694;DHT22;9477;51.414;10.362;2023-03-23T10:41:53;19.10;74.00
18694;DHT22;9477;51.414;10.362;2023-03-23T10:43:55;19.20;74.80
18694;DHT22;9477;51.414;10.362;2023-03-23T10:46:00;19.30;73.80
18694;DHT22;9477;51.414;10.362;2023-03-23T10:48:09;19.40;74.30
18694;DHT22;9477;51.414;10.362;2023-03-23T10:50:15;19.40;72.80
18694;DHT22;9477;51.414;10.362;2023-03-23T10:52:30;19.30;73.10
18694;DHT22;9477;51.414;10.362;2023-03-23T10:54:36;19.30;74.10
18694;DHT22;9477;51.414;10.362;2023-03-23T10:56:42;19.50;73.60
18694;DHT22;9477;51.414;10.362;2023-03-23T10:58:44;19.40;72.60
18694;DHT22;9477;51.414;10.362;2023-03-23T11:00:47;19.30;72.50
18694;DHT22;9477;51.414;10.362;2023-03-23T11:02:58;19.20;72.20
18694;DHT22;9477;51.414;10.362;2023-03-23T11:05:04;19.00;73.70
18694;DHT22;9477;51.414;10.362;2023-03-23T11:07:17;19.10;72.90
18694;DHT22;9477;51.414;10.362;2023-03-23T11:09:32;18.60;71.20
18694;DHT22;9477;51.414;10.362;2023-03-23T11:11:38;18.80;72.80
18694;DHT22;9477;51.414;10.362;2023-03-23T11:13:45;18.70;73.10
18694;DHT22;9477;51.414;10.362;2023-03-23T11:15:49;18.90;73.90
18694;DHT22;9477;51.414;10.362;2023-03-23T11:17:58;19.00;73.40
18694;DHT22;9477;51.414;10.362;2023-03-23T11:20:10;19.10;72.50
18694;DHT22;9477;51.414;10.362;2023-03-23T11:22:20;19.30;72.10
18694;DHT22;9477;51.414;10.362;2023-03-23T11:24:26;19.40;72.10
18694;DHT22;9477;51.414;10.362;2023-03-23T11:26:29;19.20;70.10
18694;DHT22;9477;51.414;10.362;2023-03-23T11:28:35;19.30;70.60
18694;DHT22;9477;51.414;10.362;2023-03-23T11:30:39;19.20;70.40
18694;DHT22;9477;51.414;10.362;2023-03-23T11:32:43;19.30;71.40
18694;DHT22;9477;51.414;10.362;2023-03-23T11:34:48;18.80;69.30
18694;DHT22;9477;51.414;10.362;2023-03-23T11:36:53;18.90;70.00
18694;DHT22;9477;51.414;10.362;2023-03-23T11:38:55;19.00;70.80
18694;DHT22;9477;51.414;10.362;2023-03-23T11:40:59;19.00;69.50
18694;DHT22;9477;51.414;10.362;2023-03-23T11:43:08;18.70;68.20
18694;DHT22;9477;51.414;10.362;2023-03-23T11:45:18;18.60;69.20
18694;DHT22;9477;51.414;10.362;2023-03-23T11:47:27;18.20;67.80
18694;DHT22;9477;51.414;10.362;2023-03-23T11:49:44;18.10;68.50
18694;DHT22;9477;51.414;10.362;2023-03-23T11:51:50;17.80;69.10
18694;DHT22;9477;51.414;10.362;2023-03-23T11:53:58;17.70;70.00
18694;DHT22;9477;51.414;10.362;2023-03-23T11:56:10;17.40;70.30
18694;DHT22;9477;51.414;10.362;2023-03-23T11:58:14;17.40;71.50
18694;DHT22;9477;51.414;10.362;2023-03-23T12:00:19;17.50;72.30
18694;DHT22;9477;51.414;10.362;2023-03-23T12:02:37;17.50;72.50
18694;DHT22;9477;51.414;10.362;2023-03-23T12:04:56;17.70;73.00
18694;DHT22;9477;51.414;10.362;2023-03-23T12:07:09;17.80;72.80
18694;DHT22;9477;51.414;10.362;2023-03-23T12:09:23;18.00;73.10
18694;DHT22;9477;51.414;10.362;2023-03-23T12:11:34;18.20;73.30
18694;DHT22;9477;51.414;10.362;2023-03-23T12:13:48;18.30;72.40
18694;DHT22;9477;51.414;10.362;2023-03-23T12:16:02;18.50;72.40
18694;DHT22;9477;51.414;10.362;2023-03-23T12:18:15;18.70;72.10
18694;DHT22;9477;51.414;10.362;2023-03-23T12:20:27;18.70;72.40
18694;DHT22;9477;51.414;10.362;2023-03-23T12:22:40;19.20;72.90
18694;DHT22;9477;51.414;10.362;2023-03-23T12:24:55;19.40;71.70
18694;DHT22;9477;51.414;10.362;2023-03-23T12:27:05;19.20;71.50
18694;DHT22;9477;51.414;10.362;2023-03-23T12:29:32;19.50;72.10
18694;DHT22;9477;51.414;10.362;2023-03-23T12:31:41;19.50;70.90
18694;DHT22;9477;51.414;10.362;2023-03-23T12:33:55;19.30;69.30
18694;DHT22;9477;51.414;10.362;2023-03-23T12:36:09;19.50;70.50
18694;DHT22;9477;51.414;10.362;2023-03-23T12:38:23;19.50;69.40
18694;DHT22;9477;51.414;10.362;2023-03-23T12:40:43;19.50;69.60
18694;DHT22;9477;51.414;10.362;2023-03-23T12:42:52;19.70;69.90
18694;DHT22;9477;51.414;10.362;2023-03-23T12:45:01;19.70;69.40
18694;DHT22;9477;51.414;10.362;2023-03-23T12:47:14;19.80;68.90
18694;DHT22;9477;51.414;10.362;2023-03-23T12:49:22;20.10;68.90
18694;DHT22;9477;51.414;10.362;2023-03-23T12:51:29;20.00;68.00
18694;DHT22;9477;51.414;10.362;2023-03-23T12:53:40;20.00;68.60
18694;DHT22;9477;51.414;10.362;2023-03-23T12:55:46;20.20;68.40
18694;DHT22;9477;51.414;10.362;2023-03-23T12:57:54;20.40;68.80
18694;DHT22;9477;51.414;10.362;2023-03-23T13:00:06;20.60;68.40
18694;DHT22;9477;51.414;10.362;2023-03-23T13:02:20;20.80;68.80
18694;DHT22;9477;51.414;10.362;2023-03-23T13:04:27;20.40;67.80
18694;DHT22;9477;51.414;10.362;2023-03-23T13:06:33;20.10;67.90
18694;DHT22;9477;51.414;10.362;2023-03-23T13:08:40;19.90;68.40
18694;DHT22;9477;51.414;10.362;2023-03-23T13:10:47;19.60;67.70